Davis Monthan Air Force Base
KDMA : now visible

Airfield :











YOU CAN JOIN US ON...

 
LOGIN :

Register | Disclaimer

   EN    FR    IT 

 









Legend :    VFR   Marginal VFR   IFR   Intensive IFR   Very Intensive IFR
Visi :
Ceiling :
>= 8 km
>= 3000ft
5 to 8 km
1000 to 3000 ft
1500m to 5 km
500 to 1000 ft
800 to 1500m
200 to 500 ft
< 800m
< 200 ft
Symbols :   Thunderstorms  Fog  Heavy snow  Heavy precipitations  Wind > 20 kt






- Airport Elevation : 2704 ft


KDMA - Davis Monthan Air Force Base

CURRENT METAR :
  • 260458Z AUTO 13005KT 10SM CLR 11/07 A3012 RMK AO2 SLP184 T01120067 FZRANO $

EXPIRED METARs :
  • 260358Z AUTO 25006KT 10SM CLR 14/06 A3011 RMK AO2 SLP178 T01360062 FZRANO $
  • 260258Z AUTO 28008KT 10SM CLR 14/06 A3009 RMK AO2 SLP175 T01430064 FZRANO $
  • 260210Z 29008KT 10SM CLR 15/07 A3008 RMK AO2A SLP172 FZRANO $

TAF TAF KDMA
Valid from the 25 at 22:00 until the 27 at 04:00 UTC


252201Z 2522/2704 30009KT 9999 FEW120 SCT250 QNH3004INS
BECMG 2605/2606 12006KT 9999 FEW250 QNH3014INS
BECMG 2618/2619 26009KT 9999 SKC QNH3008INS TX21/2621Z TN08/2613Z



MET'MAP, your aeronautical weather chart ! - Copyright ORBIFLY December 2007 - Disclaimer

ORBIFLY MET'MAP TEAM :

Programming & Development : Alexandra Zaïnal
Concept & original design : Baudouin d'Aumeries
Assistance for programming : Marc-Olivier Méhu
Technical & hardware support : Manuel Goepfert

Contact : metmap@orbifly.com




SOURCES & CREDITS :

   NOAA       Earth
Advisory